Aeroporto :
LOGIN :

Iscrizione | Disclaimer

   EN    FR    IT 

 










Sommario :    VFR   VFR Marginale   IFR   IFR Intensivo   IFR Molto Intensivo
Visibilità : 
Base nubi : 
>= 8 km
>= 3000ft
5 / 8 km
1000 / 3000 ft
1500m / 5 km
500 / 1000 ft
800 / 1500m
200 / 500 ft
< 800m
< 200 ft
Simboli :   Temporali  Nebbia  Neve Forte  Precipitazioni Forti  Vento > 20 kt
SIGMETs :   Varie  Temporali  Ghiacco  Turbolenza  Onda orograficha  Ceneri Vulcaniche






- Altitudine del aeroporto : 160 ft
- Codice IATA : LRT


LFRH - Lorient Lann Bihoue

ULTIMO METAR :
  • 291830Z AUTO 15007KT 9999 FEW022 BKN034 09/08 Q1015 NOSIG

METARs OBSOLETI :
  • 291800Z AUTO 15006KT 9999 FEW007 09/07 Q1015 NOSIG
  • 291730Z AUTO 15006KT 9999 FEW028 09/07 Q1015 NOSIG
  • 291700Z AUTO 16006KT 9999 BKN029 10/08 Q1015 NOSIG
  • 291630Z AUTO 17006KT 9999 FEW014 SCT019 10/08 Q1016 NOSIG
  • 291600Z AUTO 19008KT 9999 BKN016 11/08 Q1016 NOSIG

TAF TAF LFRH
Valido dal 29 a 18 ore il 30 a 18 ore UTC


291700Z 2918/3018 15008KT 9999 BKN025
BECMG 2921/2923 4000 RADZ BKN003 BKN005
TEMPO 3001/3006 1500 +DZ VV///
BECMG 3004/3006 23012KT
TEMPO 3007/3018 2000 DZ BKN002



MetMap, La meteo Aeronautica in un colpo d'occhio ! - Copyright ORBIFLY Dicembre 2007 - Disclaimer

ORBIFLY MET'MAP TEAM :

Programmazione e sviluppo : Alexandra Zaïnal
Concezione : Baudouin d'Aumeries
Aiuto per la programmazione : Marc-Olivier Méhu
Supporto tecnico e logistico : Manuel Goepfert
Aiuto per la traduzione : Arnaldo La Scala

Contatto : metmap@orbifly.com




FONTI E CREDITI :

   NOAA